Time;durP1;ratioP1;P1;durP2;ratioP2;P2;SDS_P1;SDS_P2;PMS_P1;PMS_P2;Temp;Humidity;BMP_temperature;BMP_pressure;BME280_temperature;BME280_humidity;BME280_pressure;Samples;Min_cycle;Max_cycle;Signal;HPM_P1;HPM_P2
2022/04/15 00:02:24;;;;;;;;;;;15.50;99.90;;;;;;4288066;33;44136;-82
2022/04/15 00:04:51;;;;;;;;;;;15.40;99.90;;;;;;4288505;33;44212;-83
2022/04/15 00:07:18;;;;;;;;;;;15.50;99.90;;;;;;4301284;33;43904;-83
2022/04/15 00:09:45;;;;;;;;;;;15.40;99.90;;;;;;4301273;33;42616;-83
2022/04/15 00:12:17;;;;;;;;;;;15.40;99.90;;;;;;4301263;33;43208;-83
2022/04/15 00:14:45;;;;;;;;;;;15.30;99.90;;;;;;4301658;33;43246;-83
2022/04/15 00:17:12;;;;;;;;;;;15.40;99.90;;;;;;4301448;33;43239;-83
2022/04/15 00:19:39;;;;;;;;;;;15.30;99.90;;;;;;4301028;33;43246;-83
2022/04/15 00:22:06;;;;;;;;;;;15.30;99.90;;;;;;4301780;33;43984;-83
2022/04/15 00:24:33;;;;;;;;;;;15.30;99.90;;;;;;4288005;33;44231;-82
2022/04/15 00:27:00;;;;;;;;;;;15.30;99.90;;;;;;4301005;33;42953;-82
2022/04/15 00:29:28;;;;;;;;;;;15.30;99.90;;;;;;4301012;33;43934;-82
2022/04/15 00:31:55;;;;;;;;;;;15.30;99.90;;;;;;4301261;33;44303;-83
2022/04/15 00:34:22;;;;;;;;;;;15.20;99.90;;;;;;4287886;33;46225;-82
2022/04/15 00:36:49;;;;;;;;;;;15.20;99.90;;;;;;4300859;33;44618;-82
2022/04/15 00:39:16;;;;;;;;;;;15.20;99.90;;;;;;4287989;33;43770;-82
2022/04/15 00:41:43;;;;;;;;;;;15.20;99.90;;;;;;4288187;33;43178;-82
2022/04/15 00:44:10;;;;;;;;;;;15.20;99.90;;;;;;4301335;33;42658;-83
2022/04/15 00:46:37;;;;;;;;;;;15.20;99.90;;;;;;4301533;33;43505;-83
2022/04/15 00:49:04;;;;;;;;;;;15.20;99.90;;;;;;4287956;33;42489;-83
2022/04/15 00:51:31;;;;;;;;;;;15.10;99.90;;;;;;4299904;33;43276;-83
2022/04/15 00:54:01;;;;;;;;;;;15.10;99.90;;;;;;4300067;33;43277;-83
2022/04/15 00:56:31;;;;;;;;;;;15.20;99.90;;;;;;4288019;33;43789;-83
2022/04/15 00:58:59;;;;;;;;;;;15.10;99.90;;;;;;4288205;33;42953;-83
2022/04/15 01:01:26;;;;;;;;;;;15.10;99.90;;;;;;4300538;33;42914;-83
2022/04/15 01:03:55;;;;;;;;;;;15.10;99.90;;;;;;4288352;33;43473;-83
2022/04/15 01:06:24;;;;;;;;;;;15.10;99.90;;;;;;4287853;33;43409;-83
2022/04/15 01:08:53;;;;;;;;;;;15.00;99.90;;;;;;4300805;33;43890;-83
2022/04/15 01:11:21;;;;;;;;;;;15.00;99.90;;;;;;4288033;33;43161;-83
2022/04/15 01:13:49;;;;;;;;;;;15.00;99.90;;;;;;4288044;33;44244;-83
2022/04/15 01:16:17;;;;;;;;;;;15.00;99.90;;;;;;4300705;33;44220;-83
2022/04/15 01:18:44;;;;;;;;;;;15.00;99.90;;;;;;4300665;33;44288;-83
2022/04/15 01:21:12;;;;;;;;;;;15.00;99.90;;;;;;4300592;33;42884;-83
2022/04/15 01:23:40;;;;;;;;;;;15.00;99.90;;;;;;4287945;33;42692;-83
2022/04/15 01:26:07;;;;;;;;;;;14.90;99.90;;;;;;4300833;33;43023;-83
2022/04/15 01:28:34;;;;;;;;;;;14.90;99.90;;;;;;4300527;33;44146;-84
2022/04/15 01:31:01;;;;;;;;;;;14.90;99.90;;;;;;4300669;33;42647;-84
2022/04/15 01:33:28;;;;;;;;;;;14.90;99.90;;;;;;4287904;33;43217;-83
2022/04/15 01:35:56;;;;;;;;;;;14.90;99.90;;;;;;4299481;33;43698;-83
2022/04/15 01:38:24;;;;;;;;;;;14.80;99.90;;;;;;4290497;33;45410;-83
2022/04/15 01:40:52;;;;;;;;;;;14.80;99.90;;;;;;4303021;33;44195;-85
2022/04/15 01:43:19;;;;;;;;;;;14.90;99.90;;;;;;4290056;33;42798;-83
2022/04/15 01:45:47;;;;;;;;;;;14.80;99.90;;;;;;4290010;33;43275;-83
2022/04/15 01:48:14;;;;;;;;;;;14.80;99.90;;;;;;4289887;33;43300;-84
2022/04/15 01:50:41;;;;;;;;;;;14.80;99.90;;;;;;4303288;33;42290;-83
2022/04/15 01:53:08;;;;;;;;;;;14.70;99.90;;;;;;4303298;33;44817;-83
2022/04/15 01:55:36;;;;;;;;;;;14.80;99.90;;;;;;4303335;33;43318;-83
2022/04/15 01:58:03;;;;;;;;;;;14.70;99.90;;;;;;4303829;33;20061;-83
2022/04/15 02:00:30;;;;;;;;;;;14.70;99.90;;;;;;4302791;33;42983;-83
2022/04/15 02:02:57;;;;;;;;;;;14.70;99.90;;;;;;4301528;33;44244;-83
2022/04/15 02:05:24;;;;;;;;;;;14.60;99.90;;;;;;4290182;33;43760;-83
2022/04/15 02:07:51;;;;;;;;;;;14.70;99.90;;;;;;4289938;33;44914;-83
2022/04/15 02:10:18;;;;;;;;;;;14.70;99.90;;;;;;4302596;33;45327;-84
2022/04/15 02:12:45;;;;;;;;;;;14.60;99.90;;;;;;4289547;33;44610;-84
2022/04/15 02:15:12;;;;;;;;;;;14.60;99.90;;;;;;4302655;33;44730;-84
2022/04/15 02:17:39;;;;;;;;;;;14.60;99.90;;;;;;4302768;33;43926;-84
2022/04/15 02:20:07;;;;;;;;;;;14.60;99.90;;;;;;4302584;33;43483;-84
2022/04/15 02:22:34;;;;;;;;;;;14.60;99.90;;;;;;4302468;33;43523;-84
2022/04/15 02:25:01;;;;;;;;;;;14.60;99.90;;;;;;4302814;33;45897;-84
2022/04/15 02:27:28;;;;;;;;;;;14.50;99.90;;;;;;4303036;33;43315;-84
2022/04/15 02:29:55;;;;;;;;;;;14.50;99.90;;;;;;4302599;33;43220;-83
2022/04/15 02:32:22;;;;;;;;;;;14.50;99.90;;;;;;4302320;33;42834;-83
2022/04/15 02:34:49;;;;;;;;;;;14.50;99.90;;;;;;4302377;33;43031;-83
2022/04/15 02:37:17;;;;;;;;;;;14.50;99.90;;;;;;4302620;33;44895;-84
2022/04/15 02:39:44;;;;;;;;;;;14.40;99.90;;;;;;4302693;33;43087;-86
2022/04/15 02:42:11;;;;;;;;;;;14.40;99.90;;;;;;4289969;33;43402;-85
2022/04/15 02:44:38;;;;;;;;;;;14.40;99.90;;;;;;4302476;33;42960;-84
2022/04/15 02:47:07;;;;;;;;;;;14.40;99.90;;;;;;4301569;33;44222;-84
2022/04/15 02:49:34;;;;;;;;;;;14.50;99.90;;;;;;4301773;33;44250;-84
2022/04/15 02:52:01;;;;;;;;;;;14.40;99.90;;;;;;4301393;33;42596;-84
2022/04/15 02:54:28;;;;;;;;;;;14.40;99.90;;;;;;4302030;33;43898;-84
2022/04/15 02:56:55;;;;;;;;;;;14.40;99.90;;;;;;4302051;33;45672;-83
2022/04/15 02:59:22;;;;;;;;;;;14.40;99.90;;;;;;4289121;33;42932;-84
2022/04/15 03:01:49;;;;;;;;;;;14.40;99.90;;;;;;4301746;33;43466;-84
2022/04/15 03:04:17;;;;;;;;;;;14.30;99.90;;;;;;4289010;33;42836;-84
2022/04/15 03:06:44;;;;;;;;;;;14.30;99.90;;;;;;4301842;33;43051;-84
2022/04/15 03:09:11;;;;;;;;;;;14.30;99.90;;;;;;4288949;33;42732;-83
2022/04/15 03:11:38;;;;;;;;;;;14.30;99.90;;;;;;4301778;33;44087;-83
2022/04/15 03:14:06;;;;;;;;;;;14.30;99.90;;;;;;4301714;33;44661;-83
2022/04/15 03:16:33;;;;;;;;;;;14.30;99.90;;;;;;4301710;33;44184;-83
2022/04/15 03:19:00;;;;;;;;;;;14.20;99.90;;;;;;4302054;33;43993;-83
2022/04/15 03:21:27;;;;;;;;;;;14.20;99.90;;;;;;4302205;33;44217;-83
2022/04/15 03:23:55;;;;;;;;;;;14.20;99.90;;;;;;4300612;33;46034;-83
2022/04/15 03:26:22;;;;;;;;;;;14.20;99.90;;;;;;4301915;33;44206;-84
2022/04/15 03:28:49;;;;;;;;;;;14.20;99.90;;;;;;4288879;33;44640;-84
2022/04/15 03:31:16;;;;;;;;;;;14.10;99.90;;;;;;4301870;33;45654;-83
2022/04/15 03:33:44;;;;;;;;;;;14.10;99.90;;;;;;4288922;33;43019;-83
2022/04/15 03:36:11;;;;;;;;;;;14.10;99.90;;;;;;4288513;33;43938;-83
2022/04/15 03:38:38;;;;;;;;;;;14.10;99.90;;;;;;4301450;33;44187;-82
2022/04/15 03:41:06;;;;;;;;;;;14.10;99.90;;;;;;4301640;33;43007;-83
2022/04/15 03:43:33;;;;;;;;;;;14.10;99.90;;;;;;4301817;33;43471;-83
2022/04/15 03:46:00;;;;;;;;;;;14.00;99.90;;;;;;4300252;33;43766;-84
2022/04/15 03:48:27;;;;;;;;;;;14.00;99.90;;;;;;4301207;33;44166;-84
2022/04/15 03:50:54;;;;;;;;;;;14.00;99.90;;;;;;4288301;33;44030;-85
2022/04/15 03:53:21;;;;;;;;;;;14.00;99.90;;;;;;4301753;33;44755;-84
2022/04/15 03:55:49;;;;;;;;;;;14.00;99.90;;;;;;4301208;33;43002;-83
2022/04/15 03:58:16;;;;;;;;;;;14.00;99.90;;;;;;4301654;33;43828;-83
2022/04/15 04:00:44;;;;;;;;;;;14.00;99.90;;;;;;4301478;33;42617;-83
2022/04/15 04:03:12;;;;;;;;;;;14.00;99.90;;;;;;4299944;33;45120;-84
2022/04/15 04:05:39;;;;;;;;;;;13.90;99.90;;;;;;4301634;33;43922;-84
2022/04/15 04:08:07;;;;;;;;;;;14.00;99.90;;;;;;4300184;33;43474;-84
2022/04/15 04:10:34;;;;;;;;;;;13.90;99.90;;;;;;4288114;33;43883;-84
2022/04/15 04:13:02;;;;;;;;;;;13.90;99.90;;;;;;4288028;33;44911;-84
2022/04/15 04:15:31;;;;;;;;;;;13.90;99.90;;;;;;4288130;33;44067;-84
2022/04/15 04:17:58;;;;;;;;;;;13.80;99.90;;;;;;4301563;33;43384;-83
2022/04/15 04:20:25;;;;;;;;;;;13.80;99.90;;;;;;4301414;33;43913;-84
2022/04/15 04:22:52;;;;;;;;;;;13.80;99.90;;;;;;4300450;33;43453;-83
2022/04/15 04:25:20;;;;;;;;;;;13.80;99.90;;;;;;4300871;33;45281;-83
2022/04/15 04:27:47;;;;;;;;;;;13.80;99.90;;;;;;4288085;33;43420;-83
2022/04/15 04:30:14;;;;;;;;;;;13.80;99.90;;;;;;4300239;33;43210;-84
2022/04/15 04:32:42;;;;;;;;;;;13.70;99.90;;;;;;4301275;33;43818;-84
2022/04/15 04:35:09;;;;;;;;;;;13.70;99.90;;;;;;4288219;33;43178;-84
2022/04/15 04:37:36;;;;;;;;;;;13.70;99.90;;;;;;4301140;33;46142;-83
2022/04/15 04:40:03;;;;;;;;;;;13.70;99.90;;;;;;4301229;33;43085;-83
2022/04/15 04:42:30;;;;;;;;;;;13.60;99.90;;;;;;4301180;33;44031;-83
2022/04/15 04:44:58;;;;;;;;;;;13.60;99.90;;;;;;4288179;33;44164;-84
2022/04/15 04:47:25;;;;;;;;;;;13.60;99.90;;;;;;4301187;33;43185;-83
2022/04/15 04:49:52;;;;;;;;;;;13.60;99.90;;;;;;4288126;33;43565;-83
2022/04/15 04:52:19;;;;;;;;;;;13.60;99.90;;;;;;4300828;33;43763;-84
2022/04/15 04:54:46;;;;;;;;;;;13.60;99.90;;;;;;4301206;33;43225;-84
2022/04/15 04:57:13;;;;;;;;;;;13.60;99.90;;;;;;4301198;33;43350;-83
2022/04/15 04:59:40;;;;;;;;;;;13.60;99.90;;;;;;4301169;33;44183;-84
2022/04/15 05:02:10;;;;;;;;;;;13.50;99.90;;;;;;4287656;33;43254;-84
2022/04/15 05:04:37;;;;;;;;;;;13.60;99.90;;;;;;4300140;33;43827;-83
2022/04/15 05:07:05;;;;;;;;;;;13.60;99.90;;;;;;4301303;33;44333;-83
2022/04/15 05:09:32;;;;;;;;;;;13.50;99.90;;;;;;4300670;33;42719;-83
2022/04/15 05:11:59;;;;;;;;;;;13.50;99.90;;;;;;4301520;33;43909;-83
2022/04/15 05:14:26;;;;;;;;;;;13.50;99.90;;;;;;4303865;33;43209;-84
2022/04/15 05:16:53;;;;;;;;;;;13.50;99.90;;;;;;4290758;33;43211;-85
2022/04/15 05:19:20;;;;;;;;;;;13.50;99.90;;;;;;4290868;33;44024;-84
2022/04/15 05:21:47;;;;;;;;;;;13.50;99.90;;;;;;4303806;33;44334;-83
2022/04/15 05:24:14;;;;;;;;;;;13.50;99.90;;;;;;4303314;33;42657;-83
2022/04/15 05:26:41;;;;;;;;;;;13.50;99.90;;;;;;4290518;33;43737;-84
2022/04/15 05:29:08;;;;;;;;;;;13.40;99.90;;;;;;4303749;33;43908;-84
2022/04/15 05:31:35;;;;;;;;;;;13.40;99.90;;;;;;4303671;33;43833;-83
2022/04/15 05:34:03;;;;;;;;;;;13.40;99.90;;;;;;4303361;33;42894;-84
2022/04/15 05:36:30;;;;;;;;;;;13.40;99.90;;;;;;4303223;33;43771;-83
2022/04/15 05:38:57;;;;;;;;;;;13.40;99.90;;;;;;4303435;33;43804;-84
2022/04/15 05:41:24;;;;;;;;;;;13.40;99.90;;;;;;4289971;33;43321;-85
2022/04/15 05:43:51;;;;;;;;;;;13.40;99.90;;;;;;4303113;33;43317;-84
2022/04/15 05:46:19;;;;;;;;;;;13.40;99.90;;;;;;4289812;33;45120;-83
2022/04/15 05:48:46;;;;;;;;;;;13.40;99.90;;;;;;4302963;33;43322;-83
2022/04/15 05:51:13;;;;;;;;;;;13.40;99.90;;;;;;4303473;33;44045;-83
2022/04/15 05:53:40;;;;;;;;;;;13.40;99.90;;;;;;4303003;33;41953;-84
2022/04/15 05:56:07;;;;;;;;;;;13.40;99.90;;;;;;4290221;33;42877;-84
2022/04/15 05:58:34;;;;;;;;;;;13.40;99.90;;;;;;4301685;33;44159;-84
2022/04/15 06:01:01;;;;;;;;;;;13.40;99.90;;;;;;4302728;33;42906;-84
2022/04/15 06:03:32;;;;;;;;;;;13.30;99.90;;;;;;4289650;33;44549;-84
2022/04/15 06:06:00;;;;;;;;;;;13.30;99.90;;;;;;4303152;33;42971;-84
2022/04/15 06:08:27;;;;;;;;;;;13.30;99.90;;;;;;4302712;33;43313;-85
2022/04/15 06:10:54;;;;;;;;;;;13.30;99.90;;;;;;4302694;33;42326;-83
2022/04/15 06:13:22;;;;;;;;;;;13.30;99.90;;;;;;4289751;33;44158;-83
2022/04/15 06:15:53;;;;;;;;;;;13.30;99.90;;;;;;4302971;33;43184;-83
2022/04/15 06:18:20;;;;;;;;;;;13.30;99.90;;;;;;4290027;33;43014;-83
2022/04/15 06:20:48;;;;;;;;;;;13.30;99.90;;;;;;4289992;33;44256;-83
2022/04/15 06:23:16;;;;;;;;;;;13.30;99.90;;;;;;4301815;33;43527;-84
2022/04/15 06:25:43;;;;;;;;;;;13.30;99.90;;;;;;4289604;33;43478;-83
2022/04/15 06:28:10;;;;;;;;;;;13.30;99.90;;;;;;4289871;33;43612;-84
2022/04/15 06:30:38;;;;;;;;;;;13.30;99.90;;;;;;4289487;33;44220;-84
2022/04/15 06:33:06;;;;;;;;;;;13.30;99.90;;;;;;4302379;33;44327;-83
2022/04/15 06:35:34;;;;;;;;;;;13.30;99.90;;;;;;4302335;33;44074;-83
2022/04/15 06:38:01;;;;;;;;;;;13.30;99.90;;;;;;4301233;33;43205;-83
2022/04/15 06:40:28;;;;;;;;;;;13.30;99.90;;;;;;4302271;33;43023;-83
2022/04/15 06:42:55;;;;;;;;;;;13.30;99.90;;;;;;4289223;33;42524;-83
2022/04/15 06:45:23;;;;;;;;;;;13.30;99.90;;;;;;4302446;33;43837;-83
2022/04/15 06:47:51;;;;;;;;;;;13.30;99.90;;;;;;4302034;33;44643;-83
2022/04/15 06:50:20;;;;;;;;;;;13.30;99.90;;;;;;4302576;33;43252;-84
2022/04/15 06:52:47;;;;;;;;;;;13.30;99.90;;;;;;4302279;33;43562;-83
2022/04/15 06:55:14;;;;;;;;;;;13.30;99.90;;;;;;4302108;33;44669;-83
2022/04/15 06:57:42;;;;;;;;;;;13.30;99.90;;;;;;4289102;33;43406;-83
2022/04/15 07:00:11;;;;;;;;;;;13.30;99.90;;;;;;4301985;33;43838;-82
2022/04/15 07:02:38;;;;;;;;;;;13.30;99.90;;;;;;4288772;33;44098;-83
2022/04/15 07:05:07;;;;;;;;;;;13.30;99.90;;;;;;4289466;33;43928;-83
2022/04/15 07:07:35;;;;;;;;;;;13.30;99.90;;;;;;4288809;33;44735;-83
2022/04/15 07:10:03;;;;;;;;;;;13.30;99.90;;;;;;4288845;33;44191;-82
2022/04/15 07:12:30;;;;;;;;;;;13.30;99.90;;;;;;4301674;33;44927;-83
2022/04/15 07:14:57;;;;;;;;;;;13.30;99.90;;;;;;4302319;33;43618;-83
2022/04/15 07:17:24;;;;;;;;;;;13.30;99.90;;;;;;4301717;33;43456;-83
2022/04/15 07:19:51;;;;;;;;;;;13.30;99.90;;;;;;4289243;33;43283;-84
2022/04/15 07:22:19;;;;;;;;;;;13.30;99.90;;;;;;4288620;33;43204;-83
2022/04/15 07:24:46;;;;;;;;;;;13.30;99.90;;;;;;4302055;33;44131;-83
2022/04/15 07:27:14;;;;;;;;;;;13.30;99.90;;;;;;4288567;33;44159;-83
2022/04/15 07:29:41;;;;;;;;;;;13.30;99.90;;;;;;4302031;33;43474;-82
2022/04/15 07:32:08;;;;;;;;;;;13.30;99.90;;;;;;4301479;33;44235;-83
2022/04/15 07:34:36;;;;;;;;;;;13.30;99.90;;;;;;4301622;33;43362;-83
2022/04/15 07:37:03;;;;;;;;;;;13.30;99.90;;;;;;4288468;33;43478;-83
2022/04/15 07:39:33;;;;;;;;;;;13.30;99.90;;;;;;4288780;33;43196;-84
2022/04/15 07:42:00;;;;;;;;;;;13.30;99.90;;;;;;4301939;33;43973;-82
2022/04/15 07:44:34;;;;;;;;;;;13.30;99.90;;;;;;4301875;33;42592;-82
2022/04/15 07:47:01;;;;;;;;;;;13.30;99.90;;;;;;4301185;33;44598;-83
2022/04/15 07:49:28;;;;;;;;;;;13.30;99.90;;;;;;4301440;33;43457;-83
2022/04/15 07:51:55;;;;;;;;;;;13.40;99.90;;;;;;4288480;33;43454;-83
2022/04/15 07:54:22;;;;;;;;;;;13.40;99.90;;;;;;4301766;33;45988;-83
2022/04/15 07:56:49;;;;;;;;;;;13.40;99.90;;;;;;4288640;33;43267;-83
2022/04/15 07:59:16;;;;;;;;;;;13.40;99.90;;;;;;4301209;33;42877;-84
2022/04/15 08:01:43;;;;;;;;;;;13.40;99.90;;;;;;4288046;33;44392;-83
2022/04/15 08:04:10;;;;;;;;;;;13.50;99.90;;;;;;4301786;33;46065;-84
2022/04/15 08:06:37;;;;;;;;;;;13.40;99.90;;;;;;4301420;33;44012;-84
2022/04/15 08:09:04;;;;;;;;;;;13.40;99.90;;;;;;4288614;33;43605;-83
2022/04/15 08:11:31;;;;;;;;;;;13.50;99.90;;;;;;4301614;33;43372;-83
2022/04/15 08:13:58;;;;;;;;;;;13.50;99.90;;;;;;4300056;33;42446;-84
2022/04/15 08:16:25;;;;;;;;;;;13.50;99.90;;;;;;4288061;33;43235;-84
2022/04/15 08:18:54;;;;;;;;;;;13.50;99.90;;;;;;4301090;33;44193;-84
2022/04/15 08:21:21;;;;;;;;;;;13.50;99.90;;;;;;4288433;33;44414;-83
2022/04/15 08:23:49;;;;;;;;;;;13.50;99.90;;;;;;4288034;33;43963;-83
2022/04/15 08:26:16;;;;;;;;;;;13.60;99.90;;;;;;4288488;33;43837;-84
2022/04/15 08:28:43;;;;;;;;;;;13.60;99.90;;;;;;4301405;33;42361;-82
2022/04/15 08:31:10;;;;;;;;;;;13.60;99.90;;;;;;4287995;33;42695;-82
2022/04/15 08:33:37;;;;;;;;;;;13.60;99.90;;;;;;4300385;33;43305;-83
2022/04/15 08:36:04;;;;;;;;;;;13.70;99.90;;;;;;4300891;33;42791;-83
2022/04/15 08:38:32;;;;;;;;;;;13.70;99.90;;;;;;4301119;33;45343;-83
2022/04/15 08:40:59;;;;;;;;;;;13.70;99.90;;;;;;4301282;33;44191;-83
2022/04/15 08:43:26;;;;;;;;;;;13.70;99.90;;;;;;4301254;33;43212;-83
2022/04/15 08:45:53;;;;;;;;;;;13.70;99.90;;;;;;4300947;33;43106;-83
2022/04/15 08:48:21;;;;;;;;;;;13.70;99.90;;;;;;4303737;33;44100;-83
2022/04/15 08:50:50;;;;;;;;;;;13.80;99.90;;;;;;4291082;33;43496;-83
2022/04/15 08:53:20;;;;;;;;;;;13.80;99.90;;;;;;4291190;33;42870;-83
2022/04/15 08:55:47;;;;;;;;;;;13.80;99.90;;;;;;4303668;33;45290;-83
2022/04/15 08:58:14;;;;;;;;;;;13.80;99.90;;;;;;4303786;33;44060;-83
2022/04/15 09:00:41;;;;;;;;;;;13.80;99.90;;;;;;4290657;33;44097;-83
2022/04/15 09:03:09;;;;;;;;;;;13.80;99.90;;;;;;4290487;33;44269;-83
2022/04/15 09:05:36;;;;;;;;;;;13.80;99.90;;;;;;4303566;33;42798;-83
2022/04/15 09:08:07;;;;;;;;;;;13.80;99.90;;;;;;4303912;33;44251;-83
2022/04/15 09:10:34;;;;;;;;;;;13.90;99.90;;;;;;4291017;33;43373;-83
2022/04/15 09:13:03;;;;;;;;;;;13.90;99.90;;;;;;4290359;33;43330;-83
2022/04/15 09:15:35;;;;;;;;;;;13.80;99.90;;;;;;4302999;33;43895;-83
2022/04/15 09:18:02;;;;;;;;;;;13.90;99.90;;;;;;4303447;33;43883;-83
2022/04/15 09:20:32;;;;;;;;;;;13.90;99.90;;;;;;4290382;33;42981;-83
2022/04/15 09:23:08;;;;;;;;;;;13.90;99.90;;;;;;4303726;33;42480;-84
2022/04/15 09:25:36;;;;;;;;;;;13.90;99.90;;;;;;4303769;33;43713;-83
2022/04/15 09:28:03;;;;;;;;;;;13.90;99.90;;;;;;4290624;33;43857;-83
2022/04/15 09:30:37;;;;;;;;;;;13.90;99.90;;;;;;4290605;33;44550;-83
2022/04/15 09:33:04;;;;;;;;;;;14.00;99.90;;;;;;4303176;33;42298;-82
2022/04/15 09:35:31;;;;;;;;;;;14.00;99.90;;;;;;4290533;33;43845;-83
2022/04/15 09:38:03;;;;;;;;;;;14.00;99.90;;;;;;4290210;33;43782;-85
2022/04/15 09:40:35;;;;;;;;;;;14.00;99.90;;;;;;4290827;33;43860;-83
2022/04/15 09:43:06;;;;;;;;;;;14.00;99.90;;;;;;4303141;33;43759;-82
2022/04/15 09:45:34;;;;;;;;;;;14.00;99.90;;;;;;4290400;33;44213;-82
2022/04/15 09:48:05;;;;;;;;;;;14.00;99.90;;;;;;4303271;33;45010;-83
2022/04/15 09:50:34;;;;;;;;;;;14.00;99.90;;;;;;4290380;33;43518;-83
2022/04/15 09:53:07;;;;;;;;;;;14.00;99.90;;;;;;4290358;33;43188;-82
2022/04/15 09:55:36;;;;;;;;;;;14.10;99.90;;;;;;4303142;33;43158;-83
2022/04/15 09:58:06;;;;;;;;;;;14.10;99.90;;;;;;4301528;33;43446;-83
2022/04/15 10:00:35;;;;;;;;;;;14.10;99.90;;;;;;4303274;33;45173;-83
2022/04/15 10:03:07;;;;;;;;;;;14.10;99.90;;;;;;4289832;33;44283;-83
2022/04/15 10:05:35;;;;;;;;;;;14.10;99.90;;;;;;4289885;33;44055;-83
2022/04/15 10:08:02;;;;;;;;;;;14.10;99.90;;;;;;4303232;33;43890;-83
2022/04/15 10:10:31;;;;;;;;;;;14.10;99.90;;;;;;4289801;33;44107;-82
2022/04/15 10:12:59;;;;;;;;;;;14.10;99.90;;;;;;4289658;33;42878;-82
2022/04/15 10:15:29;;;;;;;;;;;14.10;99.90;;;;;;4290076;33;45956;-83
2022/04/15 10:17:58;;;;;;;;;;;14.10;99.90;;;;;;4302893;33;43274;-83
2022/04/15 10:20:25;;;;;;;;;;;14.10;99.90;;;;;;4302647;33;44773;-83
2022/04/15 10:22:53;;;;;;;;;;;14.10;99.90;;;;;;4302650;33;42949;-83
2022/04/15 10:25:20;;;;;;;;;;;14.10;99.90;;;;;;4301924;33;43218;-83
2022/04/15 10:27:48;;;;;;;;;;;14.10;99.90;;;;;;4289321;33;45758;-83
2022/04/15 10:30:18;;;;;;;;;;;14.20;99.90;;;;;;4289464;33;43414;-83
2022/04/15 10:32:49;;;;;;;;;;;14.20;99.90;;;;;;4290455;33;19995;-82
2022/04/15 10:35:26;;;;;;;;;;;14.20;99.90;;;;;;4289237;33;44757;-83
2022/04/15 10:37:55;;;;;;;;;;;14.20;99.90;;;;;;4302793;33;43464;-83
2022/04/15 10:40:27;;;;;;;;;;;14.20;99.90;;;;;;4289613;33;45966;-83
2022/04/15 10:42:54;;;;;;;;;;;14.20;99.90;;;;;;4302626;33;44757;-83
2022/04/15 10:45:25;;;;;;;;;;;14.20;99.90;;;;;;4289419;33;42881;-83
2022/04/15 10:47:59;;;;;;;;;;;14.20;99.90;;;;;;4289337;33;43829;-83
2022/04/15 10:50:27;;;;;;;;;;;14.20;99.90;;;;;;4302173;33;43552;-83
2022/04/15 10:53:15;;;;;;;;;;;14.20;99.90;;;;;;4302430;33;43067;-83
2022/04/15 10:55:43;;;;;;;;;;;14.20;99.90;;;;;;4302243;33;43235;-83
2022/04/15 10:58:13;;;;;;;;;;;14.20;99.90;;;;;;4302410;33;43991;-83
2022/04/15 11:03:28;;;;;;;;;;;14.20;99.90;;;;;;4302806;33;20053;-83
2022/04/15 11:06:10;;;;;;;;;;;14.30;99.90;;;;;;4289144;33;43567;-82
2022/04/15 11:09:12;;;;;;;;;;;14.20;99.90;;;;;;4291008;33;46368;-83
2022/04/15 11:11:44;;;;;;;;;;;14.30;99.90;;;;;;4288885;33;43474;-84
2022/04/15 11:14:14;;;;;;;;;;;14.30;99.90;;;;;;4301767;33;44602;-83
2022/04/15 11:16:43;;;;;;;;;;;14.30;99.90;;;;;;4302505;33;43998;-83
2022/04/15 11:19:13;;;;;;;;;;;14.30;99.90;;;;;;4301769;33;44191;-84
2022/04/15 11:21:40;;;;;;;;;;;14.30;99.90;;;;;;4301822;33;43477;-83
2022/04/15 11:24:09;;;;;;;;;;;14.30;99.90;;;;;;4289023;33;43488;-83
2022/04/15 11:26:37;;;;;;;;;;;14.30;99.90;;;;;;4300988;33;44224;-83
2022/04/15 11:29:05;;;;;;;;;;;14.30;99.90;;;;;;4289091;33;43388;-83
2022/04/15 11:31:32;;;;;;;;;;;14.30;99.90;;;;;;4301865;33;43041;-83
2022/04/15 11:34:10;;;;;;;;;;;14.30;99.90;;;;;;4302333;33;19994;-83
2022/04/15 11:36:39;;;;;;;;;;;14.40;99.90;;;;;;4288555;33;43687;-83
2022/04/15 11:39:08;;;;;;;;;;;14.40;99.90;;;;;;4288459;33;43561;-83
2022/04/15 11:41:35;;;;;;;;;;;14.40;99.90;;;;;;4301425;33;42600;-83
2022/04/15 11:44:04;;;;;;;;;;;14.40;99.90;;;;;;4289335;33;44062;-83
2022/04/15 11:46:42;;;;;;;;;;;14.40;99.90;;;;;;4288541;33;42824;-83
2022/04/15 11:49:13;;;;;;;;;;;14.40;99.90;;;;;;4301761;33;45075;-82
2022/04/15 11:51:42;;;;;;;;;;;14.50;99.90;;;;;;4288306;33;42739;-83
2022/04/15 11:54:10;;;;;;;;;;;14.50;99.90;;;;;;4288214;33;44228;-83
2022/04/15 11:56:38;;;;;;;;;;;14.50;99.90;;;;;;4288403;33;43994;-83
2022/04/15 11:59:05;;;;;;;;;;;14.50;99.90;;;;;;4301616;33;44819;-83
2022/04/15 12:01:32;;;;;;;;;;;14.50;99.90;;;;;;4301403;33;43420;-83
2022/04/15 12:03:59;;;;;;;;;;;14.50;99.90;;;;;;4288803;33;36978;-83
2022/04/15 12:06:27;;;;;;;;;;;14.60;99.90;;;;;;4288321;33;44201;-83
2022/04/15 12:08:54;;;;;;;;;;;14.60;99.90;;;;;;4288435;33;43289;-83
2022/04/15 12:11:23;;;;;;;;;;;14.60;99.90;;;;;;4288441;33;43978;-83
2022/04/15 12:13:55;;;;;;;;;;;14.60;99.90;;;;;;4288041;33;43363;-82
2022/04/15 12:16:22;;;;;;;;;;;14.60;99.90;;;;;;4288550;33;45185;-83
2022/04/15 12:18:50;;;;;;;;;;;14.60;99.90;;;;;;4301420;33;45326;-83
2022/04/15 12:21:17;;;;;;;;;;;14.60;99.90;;;;;;4301356;33;43363;-83
2022/04/15 12:24:03;;;;;;;;;;;14.60;99.90;;;;;;4287917;33;45306;-83
2022/04/15 12:26:43;;;;;;;;;;;14.60;99.90;;;;;;4288112;33;43233;-83
2022/04/15 12:32:15;;;;;;;;;;;14.70;99.90;;;;;;4301224;33;42936;-83
2022/04/15 12:34:43;;;;;;;;;;;14.70;99.90;;;;;;4301301;33;42712;-83
2022/04/15 12:37:29;;;;;;;;;;;14.70;99.90;;;;;;4302098;33;20016;-82
2022/04/15 12:39:56;;;;;;;;;;;14.70;99.90;;;;;;4288269;33;43924;-83
2022/04/15 12:42:30;;;;;;;;;;;14.80;99.90;;;;;;4300923;33;43289;-83
2022/04/15 12:44:58;;;;;;;;;;;14.80;99.90;;;;;;4287886;33;42979;-82
2022/04/15 12:47:28;;;;;;;;;;;14.80;99.90;;;;;;4288298;33;42790;-81
2022/04/15 12:50:14;;;;;;;;;;;14.80;99.90;;;;;;4287980;33;43623;-83
2022/04/15 12:52:42;;;;;;;;;;;14.80;99.90;;;;;;4301044;33;43247;-83
2022/04/15 12:55:10;;;;;;;;;;;14.90;99.90;;;;;;4301097;33;44109;-83
2022/04/15 12:57:40;;;;;;;;;;;14.80;99.90;;;;;;4288276;33;42607;-83
2022/04/15 13:00:08;;;;;;;;;;;14.90;99.90;;;;;;4287797;33;42350;-83
2022/04/15 13:02:35;;;;;;;;;;;14.90;99.90;;;;;;4285326;33;43890;-83
2022/04/15 13:05:06;;;;;;;;;;;15.00;99.90;;;;;;4285292;33;42962;-84
2022/04/15 13:07:34;;;;;;;;;;;15.00;99.90;;;;;;4287152;33;20380;-82
2022/04/15 13:10:07;;;;;;;;;;;15.00;99.90;;;;;;4286578;33;44684;-83
2022/04/15 13:12:54;;;;;;;;;;;15.00;99.90;;;;;;4286882;33;45842;-83
2022/04/15 13:15:22;;;;;;;;;;;15.10;99.90;;;;;;4285233;33;42721;-83
2022/04/15 13:17:49;;;;;;;;;;;15.10;99.90;;;;;;4285303;33;42803;-83
2022/04/15 13:20:16;;;;;;;;;;;15.10;99.90;;;;;;4286233;33;42902;-83
2022/04/15 13:22:45;;;;;;;;;;;15.10;99.90;;;;;;4286657;33;43978;-83
2022/04/15 13:25:13;;;;;;;;;;;15.20;99.90;;;;;;4285069;33;44563;-83
2022/04/15 13:27:40;;;;;;;;;;;15.20;99.90;;;;;;4285595;33;43482;-84
2022/04/15 13:30:07;;;;;;;;;;;15.20;99.90;;;;;;4286296;33;43918;-83
2022/04/15 13:32:34;;;;;;;;;;;15.30;99.90;;;;;;4286285;33;45953;-83
2022/04/15 13:35:01;;;;;;;;;;;15.20;99.90;;;;;;4288893;33;45013;-83
2022/04/15 13:37:28;;;;;;;;;;;15.30;99.90;;;;;;4289106;33;43220;-83
2022/04/15 13:39:55;;;;;;;;;;;15.30;99.90;;;;;;4287953;33;43867;-83
2022/04/15 13:42:22;;;;;;;;;;;15.30;99.90;;;;;;4287988;33;44055;-84
2022/04/15 13:44:50;;;;;;;;;;;15.40;99.90;;;;;;4287714;33;43930;-83
2022/04/15 13:47:17;;;;;;;;;;;15.40;99.90;;;;;;4288946;33;43306;-83
2022/04/15 13:49:48;;;;;;;;;;;15.40;99.90;;;;;;4287424;33;43462;-83
2022/04/15 13:57:48;;;;;;;;;;;15.50;99.90;;;;;;4288868;33;42794;-83
2022/04/15 14:00:18;;;;;;;;;;;15.50;99.90;;;;;;4288711;33;42868;-82
2022/04/15 14:02:45;;;;;;;;;;;15.50;99.90;;;;;;4297978;33;44117;-82
2022/04/15 14:05:13;;;;;;;;;;;15.60;99.90;;;;;;4303158;33;42866;-83
2022/04/15 14:07:40;;;;;;;;;;;15.60;99.90;;;;;;4289791;33;43440;-83
2022/04/15 14:10:07;;;;;;;;;;;15.60;99.90;;;;;;4301684;33;43551;-83
2022/04/15 14:12:37;;;;;;;;;;;15.60;99.90;;;;;;4290146;33;45663;-84
2022/04/15 14:15:05;;;;;;;;;;;15.70;99.90;;;;;;4290044;33;44160;-84
2022/04/15 14:17:33;;;;;;;;;;;15.70;99.90;;;;;;4302634;33;44039;-83
2022/04/15 14:20:00;;;;;;;;;;;15.70;99.90;;;;;;4289981;33;43174;-83
2022/04/15 14:22:27;;;;;;;;;;;15.70;99.90;;;;;;4289664;33;42689;-84
2022/04/15 14:24:54;;;;;;;;;;;15.70;99.90;;;;;;4303002;33;43430;-83
2022/04/15 14:27:21;;;;;;;;;;;15.80;99.90;;;;;;4302485;33;43096;-83
2022/04/15 14:29:49;;;;;;;;;;;15.80;99.90;;;;;;4302819;33;45689;-83
2022/04/15 14:32:16;;;;;;;;;;;15.80;99.90;;;;;;4289642;33;44944;-83
2022/04/15 14:34:43;;;;;;;;;;;15.90;99.90;;;;;;4289510;33;43753;-83